createdAt,value
2018-01-19T00:01:34.358Z,95402.41
2018-01-19T00:04:01.603Z,95400.58
2018-01-19T00:06:27.566Z,95391.42
2018-01-19T00:08:56.596Z,95404.77
2018-01-19T00:11:22.562Z,95404.41
2018-01-19T00:13:50.368Z,95391.90
2018-01-19T00:16:16.336Z,95393.64
2018-01-19T00:18:46.194Z,95399.73
2018-01-19T00:21:12.308Z,95404.66
2018-01-19T00:23:38.233Z,95412.71
2018-01-19T00:26:04.163Z,95405.09
2018-01-19T00:28:30.113Z,95411.67
2018-01-19T00:30:57.104Z,95416.27
2018-01-19T00:33:23.045Z,95410.91
2018-01-19T00:35:52.236Z,95406.13
2018-01-19T00:38:18.207Z,95417.73
2018-01-19T00:40:47.174Z,95415.41
2018-01-19T00:43:13.112Z,95406.22
2018-01-19T00:45:42.636Z,95413.07
2018-01-19T00:48:08.620Z,95403.00
2018-01-19T00:50:37.937Z,95411.45
2018-01-19T00:53:03.873Z,95412.60
2018-01-19T00:55:30.842Z,95414.63
2018-01-19T00:57:56.827Z,95416.89
2018-01-19T01:00:22.772Z,95421.27
2018-01-19T01:02:48.753Z,95424.00
2018-01-19T01:05:14.689Z,95426.25
2018-01-19T01:07:42.598Z,95422.66
2018-01-19T01:10:08.597Z,95415.15
2018-01-19T01:12:37.757Z,95421.25
2018-01-19T01:15:03.725Z,95433.71
2018-01-19T01:17:31.584Z,95454.16
2018-01-19T01:19:57.526Z,95454.53
2018-01-19T01:22:26.324Z,95458.67
2018-01-19T01:24:52.287Z,95456.96
2018-01-19T01:27:20.964Z,95449.50
2018-01-19T01:29:46.890Z,95461.48
2018-01-19T01:32:16.071Z,95483.59
2018-01-19T01:34:42.084Z,95481.16
2018-01-19T01:37:08.046Z,95479.83
2018-01-19T01:39:33.993Z,95473.50
2018-01-19T01:41:59.999Z,95476.88
2018-01-19T01:44:27.945Z,95477.41
2018-01-19T01:46:53.937Z,95484.34
2018-01-19T01:49:22.947Z,95500.06
2018-01-19T01:51:48.921Z,95497.59
2018-01-19T01:54:18.609Z,95495.88
2018-01-19T01:56:44.554Z,95507.73
2018-01-19T01:59:13.687Z,95511.05
2018-01-19T02:01:39.631Z,95506.55
2018-01-19T02:04:06.884Z,95514.35
2018-01-19T02:06:32.863Z,95515.64
2018-01-19T02:09:01.824Z,95520.20
2018-01-19T02:11:27.781Z,95524.34
2018-01-19T02:13:53.715Z,95515.75
2018-01-19T02:16:19.672Z,95513.67
2018-01-19T02:18:45.657Z,95508.87
2018-01-19T02:21:14.637Z,95517.39
2018-01-19T02:23:40.635Z,95525.61
2018-01-19T02:26:07.729Z,95524.56
2018-01-19T02:28:33.667Z,95525.72
2018-01-19T02:31:03.628Z,95528.22
2018-01-19T02:33:29.586Z,95526.25
2018-01-19T02:35:58.766Z,95529.41
2018-01-19T02:38:24.723Z,95532.97
2018-01-19T02:40:52.486Z,95525.98
2018-01-19T02:43:18.451Z,95522.75
2018-01-19T02:45:47.509Z,95530.53
2018-01-19T02:48:13.449Z,95531.01
2018-01-19T02:50:39.406Z,95523.25
2018-01-19T02:53:05.441Z,95534.16
2018-01-19T02:55:31.432Z,95533.72
2018-01-19T02:57:58.921Z,95538.52
2018-01-19T03:00:24.876Z,95535.02
2018-01-19T03:02:52.985Z,95530.55
2018-01-19T03:05:19.018Z,95542.03
2018-01-19T03:07:48.005Z,95543.62
2018-01-19T03:10:13.945Z,95550.55
2018-01-19T03:12:43.143Z,95558.91
2018-01-19T03:15:09.121Z,95571.00
2018-01-19T03:17:36.867Z,95563.89
2018-01-19T03:20:02.875Z,95576.25
2018-01-19T03:22:32.242Z,95570.05
2018-01-19T03:24:58.249Z,95574.05
2018-01-19T03:27:24.199Z,95577.84
2018-01-19T03:29:50.162Z,95581.09
2018-01-19T03:32:16.138Z,95582.75
2018-01-19T03:34:43.880Z,95579.02
2018-01-19T03:37:09.875Z,95589.46
2018-01-19T03:39:39.292Z,95592.09
2018-01-19T03:42:05.258Z,95592.66
2018-01-19T03:44:33.166Z,95592.03
2018-01-19T03:46:59.130Z,95590.80
2018-01-19T03:49:28.557Z,95593.67
2018-01-19T03:51:54.488Z,95593.27
2018-01-19T03:54:22.738Z,95594.86
2018-01-19T03:56:48.690Z,95597.13
2018-01-19T03:59:17.407Z,95610.30
2018-01-19T04:01:43.404Z,95621.16
2018-01-19T04:04:09.348Z,95616.86
2018-01-19T04:06:35.329Z,95618.34
2018-01-19T04:09:01.305Z,95621.76
2018-01-19T04:11:29.029Z,95626.75
2018-01-19T04:13:55.038Z,95624.95
2018-01-19T04:16:24.141Z,95631.38
2018-01-19T04:18:50.108Z,95628.95
2018-01-19T04:21:18.481Z,95633.47
2018-01-19T04:23:44.438Z,95642.25
2018-01-19T04:26:13.934Z,95646.11
2018-01-19T04:28:39.915Z,95656.57
2018-01-19T04:31:07.610Z,95656.81
2018-01-19T04:33:33.611Z,95663.30
2018-01-19T04:36:03.110Z,95664.27
2018-01-19T04:38:29.122Z,95664.09
2018-01-19T04:40:55.098Z,95668.48
2018-01-19T04:43:21.038Z,95675.80
2018-01-19T04:45:47.013Z,95677.55
2018-01-19T04:48:14.377Z,95672.11
2018-01-19T04:50:40.336Z,95684.91
2018-01-19T04:53:09.561Z,95690.60
2018-01-19T04:55:35.537Z,95690.55
2018-01-19T04:58:03.659Z,95691.94
2018-01-19T05:00:29.706Z,95701.33
2018-01-19T05:02:58.980Z,95695.56
2018-01-19T05:05:24.974Z,95706.11
2018-01-19T05:07:53.955Z,95706.44
2018-01-19T05:10:19.916Z,95712.45
2018-01-19T05:12:49.133Z,95712.13
2018-01-19T05:15:15.056Z,95717.52
2018-01-19T05:17:41.017Z,95718.73
2018-01-19T05:20:07.006Z,95731.60
2018-01-19T05:25:23.814Z,95741.66
2018-01-19T05:27:49.776Z,95749.16
2018-01-19T05:30:15.712Z,95755.18
2018-01-19T05:32:41.721Z,95746.17
2018-01-19T05:35:07.697Z,95747.28
2018-01-19T05:37:33.676Z,95751.40
2018-01-19T05:39:59.633Z,95760.78
2018-01-19T05:42:25.615Z,95771.87
2018-01-19T05:44:51.619Z,95784.05
2018-01-19T05:47:17.655Z,95786.87
2018-01-19T05:49:43.689Z,95793.73
2018-01-19T05:52:09.653Z,95796.20
2018-01-19T05:54:35.644Z,95797.11
2018-01-19T05:57:01.651Z,95795.03
2018-01-19T05:59:27.692Z,95795.20
2018-01-19T06:01:53.704Z,95812.31
2018-01-19T06:04:19.680Z,95816.56
2018-01-19T06:06:45.657Z,95821.82
2018-01-19T06:09:11.645Z,95823.44
2018-01-19T06:11:37.619Z,95834.59
2018-01-19T06:14:03.623Z,95838.41
2018-01-19T06:16:29.599Z,95838.94
2018-01-19T06:18:55.592Z,95844.51
2018-01-19T06:21:24.616Z,95854.10
2018-01-19T06:23:50.611Z,95849.34
2018-01-19T06:26:18.365Z,95853.30
2018-01-19T06:28:44.355Z,95859.40
2018-01-19T06:31:10.308Z,95864.59
2018-01-19T06:33:36.229Z,95863.73
2018-01-19T06:36:02.190Z,95865.73
2018-01-19T06:38:30.164Z,95872.48
2018-01-19T06:40:56.090Z,95877.09
2018-01-19T06:43:25.900Z,95881.10
2018-01-19T06:45:51.871Z,95867.88
2018-01-19T06:48:20.209Z,95872.25
2018-01-19T06:50:46.207Z,95875.91
2018-01-19T06:53:15.985Z,95879.88
2018-01-19T06:55:41.962Z,95876.87
2018-01-19T06:58:11.012Z,95882.81
2018-01-19T07:00:37.057Z,95895.94
2018-01-19T07:03:04.280Z,95908.05
2018-01-19T07:05:30.252Z,95911.30
2018-01-19T07:07:56.256Z,95912.27
2018-01-19T07:10:22.219Z,95905.03
2018-01-19T07:12:48.182Z,95922.33
2018-01-19T07:15:15.962Z,95931.33
2018-01-19T07:17:41.957Z,95936.22
2018-01-19T07:20:11.920Z,95932.14
2018-01-19T07:22:37.876Z,95933.76
2018-01-19T07:25:05.147Z,95940.77
2018-01-19T07:27:31.095Z,95940.72
2018-01-19T07:30:00.202Z,95944.16
2018-01-19T07:32:26.195Z,95940.63
2018-01-19T07:34:55.319Z,95942.72
2018-01-19T07:37:21.272Z,95955.95
2018-01-19T07:39:50.269Z,95979.14
2018-01-19T07:42:16.241Z,95963.66
2018-01-19T07:44:42.202Z,95974.23
2018-01-19T07:47:08.163Z,95976.59
2018-01-19T07:49:34.166Z,95974.33
2018-01-19T07:52:01.284Z,95978.08
2018-01-19T07:54:27.254Z,95988.38
2018-01-19T07:56:56.848Z,95994.87
2018-01-19T07:59:22.832Z,95990.73
2018-01-19T08:01:52.204Z,95981.30
2018-01-19T08:04:18.192Z,95995.62
2018-01-19T08:06:45.152Z,96007.11
2018-01-19T08:09:11.158Z,96016.31
2018-01-19T08:11:40.452Z,96004.83
2018-01-19T08:14:06.402Z,96017.30
2018-01-19T08:16:35.746Z,96009.53
2018-01-19T08:19:01.752Z,96005.13
2018-01-19T08:21:27.713Z,95996.16
2018-01-19T08:23:53.684Z,95998.84
2018-01-19T08:26:19.676Z,96003.20
2018-01-19T08:28:46.307Z,96003.81
2018-01-19T08:31:12.258Z,96005.45
2018-01-19T08:33:41.758Z,95999.64
2018-01-19T08:36:07.701Z,96011.73
2018-01-19T08:38:36.536Z,96021.73
2018-01-19T08:41:02.461Z,96013.89
2018-01-19T08:43:30.230Z,96044.76
2018-01-19T08:45:56.186Z,96036.87
2018-01-19T08:48:25.686Z,96038.03
2018-01-19T08:50:51.692Z,96039.66
2018-01-19T08:53:21.088Z,96041.62
2018-01-19T08:55:47.054Z,96052.47
2018-01-19T08:58:13.031Z,96066.27
2018-01-19T09:00:38.988Z,96079.05
2018-01-19T09:03:04.951Z,96068.14
2018-01-19T09:05:31.435Z,96079.39
2018-01-19T09:07:57.411Z,96066.86
2018-01-19T09:10:26.226Z,96073.94
2018-01-19T09:12:52.175Z,96068.45
2018-01-19T09:15:21.684Z,96074.63
2018-01-19T09:17:47.613Z,96067.63
2018-01-19T09:20:15.934Z,96075.72
2018-01-19T09:22:41.991Z,96079.92
2018-01-19T09:25:11.110Z,96089.36
2018-01-19T09:27:37.061Z,96089.00
2018-01-19T09:30:06.184Z,96082.33
2018-01-19T09:32:32.126Z,96092.22
2018-01-19T09:34:58.051Z,96079.50
2018-01-19T09:37:24.032Z,96087.77
2018-01-19T09:39:50.042Z,96094.73
2018-01-19T09:42:17.392Z,96105.73
2018-01-19T09:44:43.326Z,96101.98
2018-01-19T09:47:14.336Z,96103.98
2018-01-19T09:49:40.345Z,96105.02
2018-01-19T09:52:06.281Z,96123.61
2018-01-19T09:54:32.264Z,96101.95
2018-01-19T09:57:00.687Z,96098.96
2018-01-19T09:59:26.665Z,96103.58
2018-01-19T10:01:56.190Z,96089.73
2018-01-19T10:04:22.141Z,96099.59
2018-01-19T10:06:51.320Z,96098.60
2018-01-19T10:09:17.290Z,96091.82
2018-01-19T10:11:43.289Z,96086.29
2018-01-19T10:14:09.270Z,96095.92
2018-01-19T10:16:35.243Z,96092.96
2018-01-19T10:19:02.134Z,96092.92
2018-01-19T10:21:28.102Z,96106.19
2018-01-19T10:23:57.620Z,96098.70
2018-01-19T10:26:23.583Z,96104.38
2018-01-19T10:28:51.260Z,96107.45
2018-01-19T10:31:17.186Z,96110.02
2018-01-19T10:33:46.166Z,96109.32
2018-01-19T10:36:12.132Z,96105.21
2018-01-19T10:38:44.975Z,96106.56
2018-01-19T10:41:10.906Z,96094.73
2018-01-19T10:43:36.893Z,96093.66
2018-01-19T10:46:02.887Z,96100.25
2018-01-19T10:48:28.866Z,96093.52
2018-01-19T10:50:54.846Z,96087.27
2018-01-19T10:53:20.788Z,96096.41
2018-01-19T10:55:47.412Z,96085.38
2018-01-19T10:58:13.379Z,96095.38
2018-01-19T11:00:42.684Z,96091.18
2018-01-19T11:03:08.629Z,96091.20
2018-01-19T11:05:37.876Z,96084.67
2018-01-19T11:08:03.839Z,96079.10
2018-01-19T11:10:32.794Z,96085.41
2018-01-19T11:12:58.712Z,96088.25
2018-01-19T11:15:26.611Z,96090.83
2018-01-19T11:17:52.552Z,96085.59
2018-01-19T11:20:21.714Z,96082.39
2018-01-19T11:22:47.696Z,96084.97
2018-01-19T11:25:13.703Z,96082.66
2018-01-19T11:27:39.637Z,96083.90
2018-01-19T11:30:05.612Z,96078.18
2018-01-19T11:32:33.504Z,96084.95
2018-01-19T11:34:59.458Z,96090.95
2018-01-19T11:37:29.162Z,96082.69
2018-01-19T11:39:55.114Z,96070.52
2018-01-19T11:42:22.962Z,96074.16
2018-01-19T11:44:48.924Z,96078.77
2018-01-19T11:47:19.189Z,96086.53
2018-01-19T11:49:45.315Z,96094.22
2018-01-19T11:52:11.551Z,96089.59
2018-01-19T11:54:37.475Z,96089.30
2018-01-19T11:57:07.243Z,96092.61
2018-01-19T11:59:33.239Z,96085.00
2018-01-19T12:01:59.227Z,96082.41
2018-01-19T12:04:25.195Z,96078.26
2018-01-19T12:06:51.169Z,96087.45
2018-01-19T12:09:18.609Z,96081.78
2018-01-19T12:11:44.708Z,96084.59
2018-01-19T12:14:13.301Z,96070.04
2018-01-19T12:16:39.271Z,96073.29
2018-01-19T12:19:08.937Z,96069.14
2018-01-19T12:21:34.952Z,96076.31
2018-01-19T12:24:04.050Z,96073.02
2018-01-19T12:26:30.027Z,96067.81
2018-01-19T12:28:57.367Z,96075.53
2018-01-19T12:31:23.342Z,96087.03
2018-01-19T12:33:52.484Z,96078.75
2018-01-19T12:36:18.423Z,96076.44
2018-01-19T12:38:44.356Z,96069.28
2018-01-19T12:41:10.310Z,96056.17
2018-01-19T12:43:36.286Z,96055.95
2018-01-19T12:46:03.591Z,96063.88
2018-01-19T12:48:29.546Z,96059.73
2018-01-19T12:50:58.129Z,96070.67
2018-01-19T12:53:24.119Z,96063.91
2018-01-19T12:55:53.337Z,96057.30
2018-01-19T12:58:19.323Z,96063.02
2018-01-19T13:00:48.509Z,96056.70
2018-01-19T13:03:14.464Z,96045.67
2018-01-19T13:05:43.969Z,96042.19
2018-01-19T13:08:09.944Z,96031.31
2018-01-19T13:10:36.891Z,96026.02
2018-01-19T13:13:02.864Z,96024.98
2018-01-19T13:15:28.801Z,96027.05
2018-01-19T13:17:54.975Z,96033.84
2018-01-19T13:20:20.928Z,96026.41
2018-01-19T13:22:48.922Z,96018.41
2018-01-19T13:25:14.904Z,96018.55
2018-01-19T13:27:43.909Z,96021.78
2018-01-19T13:30:09.874Z,96010.95
2018-01-19T13:32:38.070Z,96020.00
2018-01-19T13:35:04.011Z,96024.98
2018-01-19T13:37:33.608Z,96016.64
2018-01-19T13:39:59.599Z,96018.98
2018-01-19T13:42:27.236Z,96015.56
2018-01-19T13:44:53.195Z,96023.90
2018-01-19T13:47:24.113Z,96030.48
2018-01-19T13:49:50.070Z,96027.91
2018-01-19T13:52:16.054Z,96024.25
2018-01-19T13:54:42.073Z,96024.53
2018-01-19T13:57:08.005Z,96032.01
2018-01-19T13:59:33.958Z,96030.66
2018-01-19T14:01:59.984Z,96028.23
2018-01-19T14:04:29.965Z,96028.41
2018-01-19T14:06:55.901Z,96032.46
2018-01-19T14:09:23.625Z,96033.77
2018-01-19T14:11:49.604Z,96032.57
2018-01-19T14:14:18.725Z,96028.16
2018-01-19T14:16:44.690Z,96040.55
2018-01-19T14:19:14.109Z,96039.33
2018-01-19T14:21:40.052Z,96036.36
2018-01-19T14:24:09.116Z,96036.34
2018-01-19T14:26:35.039Z,96034.51
2018-01-19T14:29:01.061Z,96030.80
2018-01-19T14:31:27.119Z,96028.66
2018-01-19T14:33:53.084Z,96038.58
2018-01-19T14:36:19.585Z,96039.94
2018-01-19T14:38:45.512Z,96050.38
2018-01-19T14:41:15.065Z,96045.59
2018-01-19T14:43:41.243Z,96044.16
2018-01-19T14:46:09.310Z,96048.59
2018-01-19T14:48:35.292Z,96044.98
2018-01-19T14:51:04.302Z,96044.53
2018-01-19T14:53:30.299Z,96045.02
2018-01-19T14:55:58.831Z,96046.86
2018-01-19T14:58:24.819Z,96045.31
2018-01-19T15:00:52.685Z,96046.59
2018-01-19T15:03:18.593Z,96049.31
2018-01-19T15:05:44.564Z,96060.37
2018-01-19T15:08:10.492Z,96056.82
2018-01-19T15:10:36.412Z,96068.47
2018-01-19T15:13:06.061Z,96063.34
2018-01-19T15:15:32.004Z,96062.57
2018-01-19T15:18:01.095Z,96063.98
2018-01-19T15:20:27.074Z,96070.61
2018-01-19T15:22:54.482Z,96074.44
2018-01-19T15:25:20.432Z,96071.39
2018-01-19T15:27:48.536Z,96073.22
2018-01-19T15:30:14.494Z,96064.43
2018-01-19T15:32:44.938Z,96074.66
2018-01-19T15:35:11.072Z,96069.52
2018-01-19T15:37:38.536Z,96067.95
2018-01-19T15:40:04.570Z,96069.30
2018-01-19T15:42:30.520Z,96069.93
2018-01-19T15:44:56.533Z,96065.02
2018-01-19T15:47:23.192Z,96059.42
2018-01-19T15:49:50.280Z,96058.73
2018-01-19T15:52:16.238Z,96057.61
2018-01-19T15:54:45.523Z,96055.46
2018-01-19T15:57:11.529Z,96047.14
2018-01-19T15:59:39.346Z,96040.77
2018-01-19T16:02:05.276Z,96044.89
2018-01-19T16:04:33.840Z,96048.16
2018-01-19T16:09:51.962Z,96041.05
2018-01-19T16:12:17.960Z,96038.63
2018-01-19T16:14:43.926Z,96036.85
2018-01-19T16:17:09.979Z,96045.12
2018-01-19T16:19:35.952Z,96042.80
2018-01-19T16:22:01.959Z,96045.16
2018-01-19T16:24:27.968Z,96042.65
2018-01-19T16:26:53.942Z,96043.70
2018-01-19T16:29:19.937Z,96039.98
2018-01-19T16:31:45.934Z,96043.58
2018-01-19T16:34:11.965Z,96039.74
2018-01-19T16:36:37.964Z,96043.27
2018-01-19T16:39:03.946Z,96040.18
2018-01-19T16:41:29.932Z,96046.86
2018-01-19T16:43:55.977Z,96046.69
2018-01-19T16:46:21.982Z,96034.70
2018-01-19T16:48:47.974Z,96042.89
2018-01-19T16:51:13.980Z,96039.72
2018-01-19T16:53:39.944Z,96034.67
2018-01-19T16:56:05.949Z,96030.45
2018-01-19T16:58:31.952Z,96034.64
2018-01-19T17:00:57.996Z,96038.08
2018-01-19T17:03:24.020Z,96032.44
2018-01-19T17:05:49.989Z,96026.91
2018-01-19T17:08:15.984Z,96021.83
2018-01-19T17:10:41.964Z,96022.07
2018-01-19T17:13:10.564Z,96030.45
2018-01-19T17:15:36.623Z,96028.51
2018-01-19T17:18:04.406Z,96027.06
2018-01-19T17:20:30.445Z,96025.09
2018-01-19T17:23:00.000Z,96019.95
2018-01-19T17:25:25.980Z,96028.23
2018-01-19T17:27:55.556Z,96033.22
2018-01-19T17:30:21.571Z,96029.19
2018-01-19T17:32:47.531Z,96024.52
2018-01-19T17:35:13.559Z,96022.65
2018-01-19T17:37:39.510Z,96023.13
2018-01-19T17:40:06.032Z,96024.70
2018-01-19T17:42:32.016Z,96027.60
2018-01-19T17:45:01.140Z,96024.25
2018-01-19T17:47:32.621Z,96022.33
2018-01-19T17:49:58.650Z,96029.78
2018-01-19T17:52:24.655Z,96021.60
2018-01-19T17:54:50.743Z,96017.22
2018-01-19T17:57:16.798Z,96023.69
2018-01-19T17:59:44.592Z,96030.98
2018-01-19T18:07:49.482Z,96025.98
2018-01-19T18:10:17.118Z,96032.91
2018-01-19T18:12:43.057Z,96030.17
2018-01-19T18:15:09.030Z,96029.85
2018-01-19T18:17:34.966Z,96027.81
2018-01-19T18:20:00.947Z,96031.14
2018-01-19T18:22:26.926Z,96029.43
2018-01-19T18:24:52.934Z,96037.49
2018-01-19T18:27:18.906Z,96035.89
2018-01-19T18:29:44.880Z,96030.75
2018-01-19T18:32:11.612Z,96029.78
2018-01-19T18:34:37.578Z,96029.08
2018-01-19T18:37:03.576Z,96028.28
2018-01-19T18:39:29.539Z,96029.19
2018-01-19T18:41:55.518Z,96033.90
2018-01-19T18:44:21.500Z,96034.59
2018-01-19T18:46:47.452Z,96036.73
2018-01-19T18:49:13.430Z,96044.45
2018-01-19T18:51:39.392Z,96041.67
2018-01-19T18:54:05.359Z,96045.90
2018-01-19T18:56:31.339Z,96051.05
2018-01-19T18:58:57.308Z,96054.54
2018-01-19T19:01:23.280Z,96049.17
2018-01-19T19:03:49.209Z,96059.61
2018-01-19T19:06:15.176Z,96059.83
2018-01-19T19:08:41.196Z,96063.20
2018-01-19T19:11:07.165Z,96067.86
2018-01-19T19:13:33.139Z,96066.64
2018-01-19T19:15:59.084Z,96070.97
2018-01-19T19:18:25.045Z,96067.35
2018-01-19T19:20:51.004Z,96071.16
2018-01-19T19:23:16.992Z,96072.22
2018-01-19T19:25:42.898Z,96073.09
2018-01-19T19:28:08.931Z,96079.64
2018-01-19T19:30:34.866Z,96078.30
2018-01-19T19:33:00.860Z,96087.69
2018-01-19T19:35:26.856Z,96085.27
2018-01-19T19:37:52.827Z,96085.34
2018-01-19T19:40:18.772Z,96083.34
2018-01-19T19:42:44.740Z,96082.94
2018-01-19T19:45:10.716Z,96082.22
2018-01-19T19:47:36.656Z,96096.62
2018-01-19T19:50:02.660Z,96095.64
2018-01-19T19:52:28.641Z,96094.99
2018-01-19T19:54:55.709Z,96097.05
2018-01-19T19:57:21.679Z,96098.38
2018-01-19T19:59:47.628Z,96101.00
2018-01-19T20:02:13.632Z,96100.29
2018-01-19T20:04:39.559Z,96103.30
2018-01-19T20:07:06.929Z,96101.91
2018-01-19T20:09:32.933Z,96094.16
2018-01-19T20:12:02.266Z,96100.20
2018-01-19T20:14:28.233Z,96103.33
2018-01-19T20:16:57.633Z,96099.86
2018-01-19T20:19:23.680Z,96100.93
2018-01-19T20:21:52.669Z,96100.51
2018-01-19T20:24:18.605Z,96108.17
2018-01-19T20:26:45.785Z,96089.54
2018-01-19T20:29:11.748Z,96108.17
2018-01-19T20:31:41.513Z,96111.85
2018-01-19T20:34:07.493Z,96106.61
2018-01-19T20:36:33.497Z,96114.52
2018-01-19T20:38:59.504Z,96119.72
2018-01-19T20:41:25.506Z,96124.62
2018-01-19T20:43:52.585Z,96139.15
2018-01-19T20:46:18.496Z,96132.92
2018-01-19T20:48:47.857Z,96143.27
2018-01-19T20:51:13.787Z,96142.36
2018-01-19T20:53:41.499Z,96144.40
2018-01-19T20:56:07.492Z,96155.05
2018-01-19T20:58:36.553Z,96161.25
2018-01-19T21:01:02.560Z,96155.64
2018-01-19T21:03:32.393Z,96155.69
2018-01-19T21:05:58.365Z,96158.34
2018-01-19T21:08:27.394Z,96167.91
2018-01-19T21:10:53.327Z,96160.34
2018-01-19T21:13:19.324Z,96160.25
2018-01-19T21:15:45.265Z,96159.01
2018-01-19T21:18:11.216Z,96165.10
2018-01-19T21:20:38.157Z,96167.34
2018-01-19T21:23:04.150Z,96169.06
2018-01-19T21:25:33.310Z,96165.77
2018-01-19T21:27:59.296Z,96167.81
2018-01-19T21:30:28.514Z,96165.86
2018-01-19T21:32:54.511Z,96164.16
2018-01-19T21:35:23.648Z,96164.30
2018-01-19T21:37:49.624Z,96162.48
2018-01-19T21:40:17.062Z,96170.39
2018-01-19T21:42:43.024Z,96170.86
2018-01-19T21:45:12.893Z,96178.28
2018-01-19T21:47:38.880Z,96173.42
2018-01-19T21:50:04.862Z,96180.58
2018-01-19T21:52:30.806Z,96182.72
2018-01-19T21:54:56.804Z,96188.56
2018-01-19T21:57:23.058Z,96187.19
2018-01-19T21:59:49.016Z,96191.15
2018-01-19T22:02:17.998Z,96149.20
2018-01-19T22:04:43.979Z,96196.57
2018-01-19T22:07:13.017Z,96193.91
2018-01-19T22:09:38.961Z,96196.09
2018-01-19T22:12:08.350Z,96205.91
2018-01-19T22:14:34.343Z,96208.47
2018-01-19T22:17:03.452Z,96209.20
2018-01-19T22:19:29.420Z,96204.58
2018-01-19T22:21:56.738Z,96211.85
2018-01-19T22:24:22.746Z,96202.63
2018-01-19T22:26:48.711Z,96205.99
2018-01-19T22:29:14.681Z,96209.33
2018-01-19T22:31:40.670Z,96209.86
2018-01-19T22:34:08.562Z,96210.05
2018-01-19T22:36:34.526Z,96220.70
2018-01-19T22:39:03.686Z,96222.05
2018-01-19T22:41:29.659Z,96225.72
2018-01-19T22:43:57.614Z,96230.09
2018-01-19T22:46:23.568Z,96235.80
2018-01-19T22:48:52.270Z,96242.71
2018-01-19T22:51:18.251Z,96239.12
2018-01-19T22:53:48.602Z,96243.92
2018-01-19T22:56:14.636Z,96241.53
2018-01-19T22:58:42.051Z,96240.47
2018-01-19T23:01:08.010Z,96244.40
2018-01-19T23:03:33.962Z,96249.32
2018-01-19T23:05:59.904Z,96246.98
2018-01-19T23:08:25.903Z,96250.53
2018-01-19T23:10:56.070Z,96251.78
2018-01-19T23:13:22.049Z,96256.06
2018-01-19T23:15:48.752Z,96253.36
2018-01-19T23:18:14.689Z,96247.41
2018-01-19T23:20:43.704Z,96249.81
2018-01-19T23:23:09.691Z,96245.14
2018-01-19T23:25:38.930Z,96242.42
2018-01-19T23:28:04.885Z,96242.29
2018-01-19T23:30:34.220Z,96244.13
2018-01-19T23:33:00.181Z,96250.84
2018-01-19T23:35:27.368Z,96259.89
2018-01-19T23:37:53.323Z,96256.30
2018-01-19T23:40:19.320Z,96255.72
2018-01-19T23:42:45.667Z,96254.38
2018-01-19T23:45:11.662Z,96252.28
2018-01-19T23:47:40.760Z,96255.06
2018-01-19T23:50:06.755Z,96256.91
2018-01-19T23:52:34.128Z,96253.83
2018-01-19T23:55:00.111Z,96250.61
2018-01-19T23:57:28.156Z,96256.55
2018-01-19T23:59:54.129Z,96250.94
